createdAt,value
2023-05-15T00:02:24.452Z,97378.13
2023-05-15T00:04:51.479Z,97365.41
2023-05-15T00:07:18.379Z,97356.59
2023-05-15T00:09:45.205Z,97357.03
2023-05-15T00:12:12.083Z,97360.16
2023-05-15T00:14:38.909Z,97341.91
2023-05-15T00:17:06.361Z,97329.53
2023-05-15T00:19:34.239Z,97335.50
2023-05-15T00:22:01.355Z,97320.69
2023-05-15T00:24:28.209Z,97323.75
2023-05-15T00:26:55.071Z,97328.19
2023-05-15T00:29:21.941Z,97317.56
2023-05-15T00:31:48.968Z,97299.94
2023-05-15T00:34:15.903Z,97302.53
2023-05-15T00:36:42.850Z,97312.88
2023-05-15T00:39:09.717Z,97312.88
2023-05-15T00:41:37.476Z,97308.22
2023-05-15T00:44:04.558Z,97296.56
2023-05-15T00:46:32.601Z,97306.53
2023-05-15T00:48:59.911Z,97324.88
2023-05-15T00:51:27.456Z,97331.53
2023-05-15T00:53:55.155Z,97336.94
2023-05-15T00:56:22.308Z,97341.06
2023-05-15T00:58:55.865Z,97351.44
2023-05-15T01:01:22.842Z,97347.78
2023-05-15T01:03:49.893Z,97345.56
2023-05-15T01:06:16.776Z,97338.38
2023-05-15T01:08:46.240Z,97321.38
2023-05-15T01:11:14.734Z,97318.91
2023-05-15T01:13:41.651Z,97330.69
2023-05-15T01:16:09.326Z,97317.50
2023-05-15T01:18:52.436Z,97319.13
2023-05-15T01:21:34.569Z,97310.22
2023-05-15T01:24:26.380Z,97315.94
2023-05-15T01:27:05.380Z,97318.06
2023-05-15T01:30:09.502Z,97335.72
2023-05-15T01:33:06.053Z,97343.19
2023-05-15T01:36:01.129Z,97346.78
2023-05-15T01:38:39.243Z,97351.81
2023-05-15T01:41:09.705Z,97352.12
2023-05-15T01:43:40.361Z,97344.84
2023-05-15T01:46:08.056Z,97355.09
2023-05-15T01:48:36.645Z,97343.25
2023-05-15T01:51:05.416Z,97339.41
2023-05-15T01:53:33.334Z,97327.03
2023-05-15T01:56:00.306Z,97313.19
2023-05-15T01:58:27.735Z,97314.91
2023-05-15T02:00:55.506Z,97298.56
2023-05-15T02:03:22.526Z,97300.03
2023-05-15T02:05:49.877Z,97301.78
2023-05-15T02:08:16.992Z,97300.78
2023-05-15T02:10:44.190Z,97311.34
2023-05-15T02:13:11.695Z,97316.31
2023-05-15T02:15:38.891Z,97318.72
2023-05-15T02:18:06.064Z,97303.53
2023-05-15T02:20:32.937Z,97303.19
2023-05-15T02:22:59.808Z,97304.84
2023-05-15T02:25:35.318Z,97304.28
2023-05-15T02:28:05.116Z,97299.66
2023-05-15T02:30:46.731Z,97304.19
2023-05-15T02:33:25.618Z,97306.84
2023-05-15T02:35:55.244Z,97306.00
2023-05-15T02:38:41.693Z,97300.00
2023-05-15T02:41:09.982Z,97301.13
2023-05-15T02:43:37.484Z,97298.53
2023-05-15T02:46:05.633Z,97303.31
2023-05-15T02:48:34.941Z,97295.34
2023-05-15T02:51:01.807Z,97287.81
2023-05-15T02:53:28.874Z,97286.22
2023-05-15T02:55:55.684Z,97279.19
2023-05-15T02:58:22.500Z,97279.94
2023-05-15T03:00:49.463Z,97292.09
2023-05-15T03:03:16.332Z,97284.19
2023-05-15T03:05:43.164Z,97272.84
2023-05-15T03:08:09.992Z,97272.81
2023-05-15T03:10:36.834Z,97271.13
2023-05-15T03:13:03.755Z,97263.50
2023-05-15T03:15:30.660Z,97248.19
2023-05-15T03:17:57.583Z,97251.41
2023-05-15T03:20:24.545Z,97253.31
2023-05-15T03:22:51.384Z,97256.09
2023-05-15T03:25:18.385Z,97257.31
2023-05-15T03:27:45.216Z,97259.25
2023-05-15T03:30:21.887Z,97269.53
2023-05-15T03:32:48.804Z,97278.91
2023-05-15T03:35:15.694Z,97279.34
2023-05-15T03:37:42.587Z,97269.91
2023-05-15T03:40:09.784Z,97270.53
2023-05-15T03:42:36.622Z,97279.69
2023-05-15T03:45:03.527Z,97275.75
2023-05-15T03:47:30.473Z,97270.47
2023-05-15T03:49:57.343Z,97279.44
2023-05-15T03:52:24.159Z,97282.34
2023-05-15T03:54:51.144Z,97282.34
2023-05-15T03:57:18.045Z,97290.16
2023-05-15T03:59:48.855Z,97289.72
2023-05-15T04:02:15.822Z,97292.91
2023-05-15T04:04:44.417Z,97292.28
2023-05-15T04:07:11.283Z,97290.88
2023-05-15T04:09:39.103Z,97289.75
2023-05-15T04:12:06.327Z,97289.25
2023-05-15T04:14:33.166Z,97296.13
2023-05-15T04:16:59.979Z,97300.72
2023-05-15T04:19:30.871Z,97297.38
2023-05-15T04:21:57.670Z,97290.47
2023-05-15T04:24:24.483Z,97303.19
2023-05-15T04:26:51.462Z,97300.50
2023-05-15T04:29:18.367Z,97308.50
2023-05-15T04:31:45.303Z,97310.31
2023-05-15T04:34:12.257Z,97315.19
2023-05-15T04:36:40.662Z,97309.94
2023-05-15T04:39:08.525Z,97306.03
2023-05-15T04:41:35.361Z,97312.56
2023-05-15T04:44:02.174Z,97307.81
2023-05-15T04:46:29.524Z,97321.47
2023-05-15T04:48:56.715Z,97325.44
2023-05-15T04:51:23.593Z,97319.59
2023-05-15T04:53:50.453Z,97317.34
2023-05-15T04:56:17.300Z,97328.09
2023-05-15T04:58:44.134Z,97327.63
2023-05-15T05:01:10.978Z,97325.56
2023-05-15T05:03:37.916Z,97332.22
2023-05-15T05:06:05.055Z,97327.28
2023-05-15T05:08:34.176Z,97338.28
2023-05-15T05:11:00.994Z,97333.91
2023-05-15T05:13:28.015Z,97330.69
2023-05-15T05:15:54.897Z,97336.69
2023-05-15T05:18:21.805Z,97339.97
2023-05-15T05:20:48.656Z,97333.78
2023-05-15T05:23:15.480Z,97331.16
2023-05-15T05:25:42.493Z,97331.31
2023-05-15T05:28:09.335Z,97333.16
2023-05-15T05:30:36.147Z,97328.06
2023-05-15T05:33:03.148Z,97329.47
2023-05-15T05:35:30.173Z,97326.75
2023-05-15T05:37:56.990Z,97331.66
2023-05-15T05:40:23.949Z,97336.16
2023-05-15T05:42:50.837Z,97337.38
2023-05-15T05:45:17.800Z,97345.19
2023-05-15T05:47:44.693Z,97348.03
2023-05-15T05:50:12.046Z,97341.81
2023-05-15T05:52:38.873Z,97346.34
2023-05-15T05:55:06.180Z,97341.84
2023-05-15T05:57:33.113Z,97340.34
2023-05-15T06:00:02.330Z,97334.94
2023-05-15T06:02:29.353Z,97326.19
2023-05-15T06:04:56.305Z,97333.50
2023-05-15T06:07:23.609Z,97335.59
2023-05-15T06:09:50.445Z,97343.88
2023-05-15T06:12:17.358Z,97354.22
2023-05-15T06:14:44.211Z,97342.00
2023-05-15T06:17:11.202Z,97346.78
2023-05-15T06:19:38.187Z,97347.87
2023-05-15T06:22:05.180Z,97353.31
2023-05-15T06:24:32.134Z,97358.94
2023-05-15T06:26:58.953Z,97358.53
2023-05-15T06:29:27.243Z,97354.09
2023-05-15T06:31:54.102Z,97353.38
2023-05-15T06:34:20.948Z,97344.94
2023-05-15T06:36:47.785Z,97364.81
2023-05-15T06:39:15.645Z,97363.63
2023-05-15T06:41:42.510Z,97359.97
2023-05-15T06:44:09.339Z,97367.53
2023-05-15T06:46:36.217Z,97368.72
2023-05-15T06:49:03.290Z,97372.41
2023-05-15T06:51:30.137Z,97370.34
2023-05-15T06:53:57.024Z,97362.66
2023-05-15T06:56:24.187Z,97368.47
2023-05-15T06:58:51.348Z,97357.50
2023-05-15T07:01:18.236Z,97360.59
2023-05-15T07:03:45.195Z,97353.06
2023-05-15T07:06:12.044Z,97364.81
2023-05-15T07:08:42.206Z,97365.78
2023-05-15T07:11:09.137Z,97371.31
2023-05-15T07:13:36.136Z,97378.63
2023-05-15T07:16:03.766Z,97383.53
2023-05-15T07:18:31.679Z,97386.56
2023-05-15T07:21:00.263Z,97379.22
2023-05-15T07:23:27.302Z,97372.16
2023-05-15T07:25:57.008Z,97363.94
2023-05-15T07:28:23.930Z,97364.13
2023-05-15T07:30:51.100Z,97364.66
2023-05-15T07:33:17.984Z,97363.06
2023-05-15T07:35:44.877Z,97369.91
2023-05-15T07:38:11.738Z,97365.56
2023-05-15T07:40:38.908Z,97372.84
2023-05-15T07:43:05.754Z,97379.94
2023-05-15T07:45:32.639Z,97375.97
2023-05-15T07:48:14.280Z,97370.94
2023-05-15T07:50:41.356Z,97375.50
2023-05-15T07:53:08.264Z,97384.16
2023-05-15T07:55:35.114Z,97399.06
2023-05-15T07:58:01.955Z,97406.84
2023-05-15T08:00:29.073Z,97397.19
2023-05-15T08:02:56.509Z,97396.50
2023-05-15T08:05:23.532Z,97406.59
2023-05-15T08:07:50.963Z,97415.66
2023-05-15T08:10:17.859Z,97413.41
2023-05-15T08:12:46.804Z,97416.41
2023-05-15T08:15:13.972Z,97416.09
2023-05-15T08:17:41.594Z,97406.94
2023-05-15T08:20:08.983Z,97404.38
2023-05-15T08:22:35.955Z,97400.72
2023-05-15T08:25:07.186Z,97401.31
2023-05-15T08:27:34.075Z,97393.91
2023-05-15T08:30:00.955Z,97380.34
2023-05-15T08:32:30.913Z,97391.94
2023-05-15T08:34:58.310Z,97394.06
2023-05-15T08:37:25.289Z,97395.06
2023-05-15T08:39:52.127Z,97406.09
2023-05-15T08:42:22.111Z,97396.84
2023-05-15T08:44:48.975Z,97396.09
2023-05-15T08:47:16.226Z,97401.91
2023-05-15T08:50:01.516Z,97394.87
2023-05-15T08:52:29.070Z,97392.38
2023-05-15T08:54:56.356Z,97396.28
2023-05-15T08:57:23.332Z,97408.41
2023-05-15T08:59:51.818Z,97409.75
2023-05-15T09:02:19.902Z,97412.94
2023-05-15T09:04:46.913Z,97413.56
2023-05-15T09:07:15.808Z,97410.84
2023-05-15T09:09:45.613Z,97412.56
2023-05-15T09:12:15.668Z,97426.81
2023-05-15T09:14:45.944Z,97421.56
2023-05-15T09:17:12.913Z,97415.50
2023-05-15T09:19:42.974Z,97428.81
2023-05-15T09:22:24.436Z,97417.87
2023-05-15T09:24:53.423Z,97419.63
2023-05-15T09:27:20.763Z,97426.06
2023-05-15T09:29:47.677Z,97425.53
2023-05-15T09:32:15.403Z,97427.00
2023-05-15T09:34:44.112Z,97424.63
2023-05-15T09:37:13.290Z,97417.87
2023-05-15T09:39:45.046Z,97420.81
2023-05-15T09:42:15.916Z,97424.75
2023-05-15T09:44:43.816Z,97428.50
2023-05-15T09:47:11.862Z,97429.31
2023-05-15T09:49:39.149Z,97442.69
2023-05-15T09:52:10.034Z,97426.47
2023-05-15T09:54:37.689Z,97432.19
2023-05-15T09:57:09.521Z,97437.00
2023-05-15T09:59:36.895Z,97429.66
2023-05-15T10:02:03.893Z,97441.59
2023-05-15T10:04:35.927Z,97428.88
2023-05-15T10:07:02.811Z,97435.62
2023-05-15T10:09:32.873Z,97439.66
2023-05-15T10:11:59.920Z,97444.16
2023-05-15T10:14:28.542Z,97442.84
2023-05-15T10:16:56.631Z,97436.75
2023-05-15T10:19:24.164Z,97444.97
2023-05-15T10:21:51.916Z,97440.09
2023-05-15T10:24:20.754Z,97435.97
2023-05-15T10:26:48.024Z,97435.66
2023-05-15T10:29:16.924Z,97439.19
2023-05-15T10:31:44.043Z,97439.25
2023-05-15T10:34:11.256Z,97448.59
2023-05-15T10:36:38.839Z,97448.84
2023-05-15T10:39:07.891Z,97446.97
2023-05-15T10:41:37.487Z,97445.56
2023-05-15T10:44:04.525Z,97453.00
2023-05-15T10:46:33.846Z,97450.91
2023-05-15T10:49:01.861Z,97449.66
2023-05-15T10:51:30.967Z,97454.75
2023-05-15T10:53:57.912Z,97440.47
2023-05-15T10:56:30.794Z,97430.66
2023-05-15T10:58:57.990Z,97434.41
2023-05-15T11:01:26.784Z,97441.09
2023-05-15T11:04:11.242Z,97435.41
2023-05-15T11:06:40.451Z,97426.22
2023-05-15T11:09:22.831Z,97427.06
2023-05-15T11:11:52.721Z,97427.88
2023-05-15T11:14:20.027Z,97429.88
2023-05-15T11:16:53.332Z,97423.84
2023-05-15T11:19:31.375Z,97418.44
2023-05-15T11:21:58.848Z,97421.28
2023-05-15T11:24:33.178Z,97429.84
2023-05-15T11:27:04.488Z,97428.31
2023-05-15T11:29:35.277Z,97420.09
2023-05-15T11:32:02.183Z,97421.88
2023-05-15T11:34:35.859Z,97418.91
2023-05-15T11:37:02.756Z,97412.59
2023-05-15T11:39:29.741Z,97415.22
2023-05-15T11:41:57.113Z,97419.22
2023-05-15T11:44:24.936Z,97422.00
2023-05-15T11:46:51.953Z,97438.38
2023-05-15T11:49:20.110Z,97429.91
2023-05-15T11:51:50.626Z,97424.19
2023-05-15T11:54:17.875Z,97432.72
2023-05-15T11:56:45.155Z,97424.37
2023-05-15T11:59:15.281Z,97430.13
2023-05-15T12:01:43.101Z,97428.34
2023-05-15T12:04:15.007Z,97424.50
2023-05-15T12:06:47.495Z,97415.81
2023-05-15T12:09:16.825Z,97426.50
2023-05-15T12:11:52.263Z,97423.59
2023-05-15T12:14:29.437Z,97431.50
2023-05-15T12:17:02.991Z,97431.22
2023-05-15T12:19:33.580Z,97434.94
2023-05-15T12:22:00.572Z,97422.78
2023-05-15T12:24:27.422Z,97422.81
2023-05-15T12:26:56.622Z,97416.94
2023-05-15T12:29:31.396Z,97422.88
2023-05-15T12:31:58.379Z,97417.28
2023-05-15T12:34:26.259Z,97416.34
2023-05-15T12:36:53.069Z,97413.78
2023-05-15T12:39:19.886Z,97419.09
2023-05-15T12:41:47.808Z,97408.22
2023-05-15T12:44:17.363Z,97395.91
2023-05-15T12:46:44.415Z,97398.50
2023-05-15T12:49:12.145Z,97399.72
2023-05-15T12:51:45.441Z,97403.25
2023-05-15T12:54:20.108Z,97395.13
2023-05-15T12:56:49.944Z,97395.25
2023-05-15T12:59:19.092Z,97395.03
2023-05-15T13:01:46.176Z,97395.44
2023-05-15T13:04:19.470Z,97390.19
2023-05-15T13:06:47.975Z,97393.41
2023-05-15T13:09:30.781Z,97390.56
2023-05-15T13:11:57.598Z,97394.22
2023-05-15T13:14:27.349Z,97389.06
2023-05-15T13:16:54.180Z,97392.22
2023-05-15T13:19:22.143Z,97395.31
2023-05-15T13:21:50.918Z,97387.44
2023-05-15T13:24:17.959Z,97397.28
2023-05-15T13:26:44.806Z,97389.75
2023-05-15T13:29:11.654Z,97392.22
2023-05-15T13:31:38.666Z,97392.25
2023-05-15T13:34:05.596Z,97385.16
2023-05-15T13:36:32.490Z,97386.63
2023-05-15T13:39:12.296Z,97384.56
2023-05-15T13:41:39.206Z,97393.50
2023-05-15T13:44:06.526Z,97396.63
2023-05-15T13:46:33.565Z,97401.34
2023-05-15T13:49:07.792Z,97404.25
2023-05-15T13:51:34.649Z,97400.38
2023-05-15T13:54:01.537Z,97393.22
2023-05-15T13:56:28.490Z,97388.28
2023-05-15T13:58:56.347Z,97388.44
2023-05-15T14:01:23.281Z,97383.34
2023-05-15T14:03:50.161Z,97378.06
2023-05-15T14:06:17.077Z,97387.47
2023-05-15T14:08:44.975Z,97392.72
2023-05-15T14:11:12.100Z,97395.63
2023-05-15T14:13:38.884Z,97392.41
2023-05-15T14:16:06.037Z,97393.22
2023-05-15T14:18:32.984Z,97396.13
2023-05-15T14:20:59.846Z,97398.88
2023-05-15T14:23:26.680Z,97395.59
2023-05-15T14:25:53.496Z,97389.69
2023-05-15T14:28:20.343Z,97392.63
2023-05-15T14:30:47.253Z,97391.53
2023-05-15T14:33:14.414Z,97380.22
2023-05-15T14:35:41.313Z,97386.56
2023-05-15T14:38:13.072Z,97399.75
2023-05-15T14:40:40.030Z,97396.28
2023-05-15T14:43:06.802Z,97402.66
2023-05-15T14:45:33.640Z,97390.78
2023-05-15T14:48:00.599Z,97406.44
2023-05-15T14:50:27.892Z,97405.84
2023-05-15T14:52:54.954Z,97409.31
2023-05-15T14:55:24.732Z,97408.34
2023-05-15T14:57:51.536Z,97411.06
2023-05-15T15:00:18.518Z,97412.03
2023-05-15T15:02:46.439Z,97412.13
2023-05-15T15:05:13.462Z,97415.00
2023-05-15T15:08:00.856Z,97415.16
2023-05-15T15:10:28.325Z,97417.97
2023-05-15T15:12:55.352Z,97431.19
2023-05-15T15:15:22.996Z,97423.13
2023-05-15T15:17:51.207Z,97431.25
2023-05-15T15:20:20.394Z,97427.81
2023-05-15T15:22:47.752Z,97434.47
2023-05-15T15:25:14.641Z,97433.00
2023-05-15T15:27:41.463Z,97429.94
2023-05-15T15:30:18.365Z,97433.00
2023-05-15T15:32:45.643Z,97436.81
2023-05-15T15:35:13.254Z,97432.72
2023-05-15T15:37:40.142Z,97436.31
2023-05-15T15:40:10.136Z,97435.97
2023-05-15T15:42:37.032Z,97426.41
2023-05-15T15:45:04.876Z,97423.75
2023-05-15T15:47:32.460Z,97424.28
2023-05-15T15:50:00.013Z,97430.53
2023-05-15T15:52:27.368Z,97422.56
2023-05-15T15:54:54.396Z,97423.06
2023-05-15T15:57:21.883Z,97425.16
2023-05-15T15:59:49.421Z,97428.22
2023-05-15T16:02:17.558Z,97422.25
2023-05-15T16:04:44.807Z,97437.44
2023-05-15T16:07:11.698Z,97435.69
2023-05-15T16:09:40.677Z,97429.59
2023-05-15T16:12:07.722Z,97446.06
2023-05-15T16:14:34.546Z,97444.25
2023-05-15T16:17:02.697Z,97447.72
2023-05-15T16:19:30.184Z,97453.25
2023-05-15T16:21:57.127Z,97452.44
2023-05-15T16:24:24.422Z,97457.56
2023-05-15T16:26:55.273Z,97458.75
2023-05-15T16:29:24.079Z,97458.50
2023-05-15T16:31:51.213Z,97462.13
2023-05-15T16:34:18.150Z,97451.56
2023-05-15T16:36:44.998Z,97455.56
2023-05-15T16:39:11.888Z,97468.66
2023-05-15T16:41:38.746Z,97464.78
2023-05-15T16:44:10.840Z,97473.25
2023-05-15T16:46:38.428Z,97473.72
2023-05-15T16:49:13.261Z,97467.66
2023-05-15T16:51:40.125Z,97473.72
2023-05-15T16:54:07.515Z,97481.28
2023-05-15T16:56:34.403Z,97477.87
2023-05-15T16:59:01.260Z,97471.63
2023-05-15T17:01:28.158Z,97472.59
2023-05-15T17:03:55.094Z,97473.13
2023-05-15T17:06:21.930Z,97469.78
2023-05-15T17:08:48.827Z,97474.78
2023-05-15T17:11:15.697Z,97477.47
2023-05-15T17:13:42.568Z,97483.91
2023-05-15T17:16:09.471Z,97495.28
2023-05-15T17:18:47.626Z,97483.91
2023-05-15T17:21:14.455Z,97490.09
2023-05-15T17:23:41.356Z,97493.22
2023-05-15T17:26:08.232Z,97491.09
2023-05-15T17:28:35.853Z,97495.50
2023-05-15T17:31:10.965Z,97489.31
2023-05-15T17:33:37.786Z,97479.00
2023-05-15T17:36:04.869Z,97476.78
2023-05-15T17:38:32.751Z,97484.31
2023-05-15T17:40:59.536Z,97483.31
2023-05-15T17:43:26.363Z,97484.22
2023-05-15T17:45:53.287Z,97478.22
2023-05-15T17:48:20.175Z,97482.62
2023-05-15T17:50:47.028Z,97477.63
2023-05-15T17:53:13.911Z,97488.34
2023-05-15T17:55:40.703Z,97493.44
2023-05-15T17:58:07.549Z,97484.28
2023-05-15T18:00:34.345Z,97485.34
2023-05-15T18:03:01.723Z,97494.66
2023-05-15T18:05:28.931Z,97499.22
2023-05-15T18:07:58.260Z,97494.00
2023-05-15T18:10:25.150Z,97492.16
2023-05-15T18:12:52.124Z,97494.31
2023-05-15T18:15:18.949Z,97497.28
2023-05-15T18:17:45.874Z,97506.31
2023-05-15T18:20:13.255Z,97498.41
2023-05-15T18:22:41.129Z,97506.00
2023-05-15T18:25:08.241Z,97503.72
2023-05-15T18:27:35.124Z,97515.25
2023-05-15T18:30:02.388Z,97523.13
2023-05-15T18:32:29.256Z,97523.25
2023-05-15T18:34:56.213Z,97519.97
2023-05-15T18:37:23.137Z,97522.94
2023-05-15T18:39:49.987Z,97525.03
2023-05-15T18:42:16.958Z,97530.41
2023-05-15T18:44:44.681Z,97531.75
2023-05-15T18:47:11.561Z,97539.09
2023-05-15T18:49:38.425Z,97533.56
2023-05-15T18:52:06.235Z,97539.94
2023-05-15T18:54:33.117Z,97543.22
2023-05-15T18:57:00.107Z,97546.28
2023-05-15T18:59:28.875Z,97551.47
2023-05-15T19:01:55.741Z,97554.25
2023-05-15T19:04:22.725Z,97556.16
2023-05-15T19:06:50.495Z,97544.44
2023-05-15T19:09:20.800Z,97554.72
2023-05-15T19:11:49.492Z,97551.69
2023-05-15T19:14:18.093Z,97548.38
2023-05-15T19:16:46.238Z,97547.84
2023-05-15T19:19:13.668Z,97555.00
2023-05-15T19:21:40.639Z,97556.22
2023-05-15T19:24:07.642Z,97557.62
2023-05-15T19:26:34.653Z,97568.41
2023-05-15T19:29:01.491Z,97569.09
2023-05-15T19:31:31.905Z,97565.53
2023-05-15T19:34:00.119Z,97570.03
2023-05-15T19:36:27.405Z,97579.28
2023-05-15T19:38:54.285Z,97586.03
2023-05-15T19:41:22.441Z,97578.91
2023-05-15T19:43:50.962Z,97591.13
2023-05-15T19:46:18.655Z,97589.59
2023-05-15T19:48:45.767Z,97588.78
2023-05-15T19:51:12.758Z,97589.56
2023-05-15T19:53:39.626Z,97583.78
2023-05-15T19:56:06.687Z,97587.91
2023-05-15T19:58:46.693Z,97584.75
2023-05-15T20:01:13.827Z,97595.38
2023-05-15T20:03:40.813Z,97591.22
2023-05-15T20:06:07.820Z,97594.09
2023-05-15T20:08:34.665Z,97602.69
2023-05-15T20:11:01.637Z,97599.69
2023-05-15T20:13:28.520Z,97594.69
2023-05-15T20:16:00.084Z,97597.34
2023-05-15T20:18:28.697Z,97598.16
2023-05-15T20:20:56.005Z,97598.72
2023-05-15T20:23:23.220Z,97597.88
2023-05-15T20:25:50.917Z,97595.97
2023-05-15T20:28:27.311Z,97593.22
2023-05-15T20:30:57.565Z,97596.28
2023-05-15T20:33:24.465Z,97595.16
2023-05-15T20:35:51.782Z,97595.16
2023-05-15T20:38:18.612Z,97590.19
2023-05-15T20:40:45.452Z,97577.87
2023-05-15T20:43:12.302Z,97576.06
2023-05-15T20:45:39.692Z,97588.41
2023-05-15T20:48:06.959Z,97592.53
2023-05-15T20:50:33.864Z,97593.50
2023-05-15T20:53:00.767Z,97596.38
2023-05-15T20:55:27.690Z,97592.19
2023-05-15T20:57:54.500Z,97598.09
2023-05-15T21:00:21.484Z,97595.94
2023-05-15T21:02:48.494Z,97610.59
2023-05-15T21:05:15.591Z,97619.84
2023-05-15T21:07:42.539Z,97618.84
2023-05-15T21:10:09.530Z,97631.13
2023-05-15T21:12:36.464Z,97625.59
2023-05-15T21:15:04.430Z,97627.91
2023-05-15T21:17:31.247Z,97636.91
2023-05-15T21:19:58.654Z,97637.31
2023-05-15T21:22:25.873Z,97644.38
2023-05-15T21:24:52.743Z,97644.66
2023-05-15T21:27:19.569Z,97648.09
2023-05-15T21:29:46.717Z,97653.94
2023-05-15T21:32:13.705Z,97657.69
2023-05-15T21:34:41.222Z,97662.06
2023-05-15T21:37:08.089Z,97665.06
2023-05-15T21:39:34.878Z,97666.09
2023-05-15T21:42:01.740Z,97668.00
2023-05-15T21:44:28.531Z,97668.94
2023-05-15T21:46:56.825Z,97658.84
2023-05-15T21:49:27.599Z,97657.19
2023-05-15T21:51:54.433Z,97659.22
2023-05-15T21:54:21.286Z,97657.16
2023-05-15T21:56:48.148Z,97651.03
2023-05-15T21:59:15.995Z,97651.81
2023-05-15T22:01:43.005Z,97646.53
2023-05-15T22:04:10.054Z,97642.12
2023-05-15T22:06:36.956Z,97646.03
2023-05-15T22:09:03.857Z,97640.09
2023-05-15T22:11:30.728Z,97648.03
2023-05-15T22:13:57.549Z,97646.00
2023-05-15T22:16:24.430Z,97646.34
2023-05-15T22:18:54.197Z,97641.06
2023-05-15T22:21:21.221Z,97637.69
2023-05-15T22:23:48.383Z,97639.09
2023-05-15T22:26:15.340Z,97636.28
2023-05-15T22:28:42.384Z,97623.16
2023-05-15T22:31:09.260Z,97619.25
2023-05-15T22:33:36.196Z,97613.22
2023-05-15T22:36:03.159Z,97615.53
2023-05-15T22:38:31.107Z,97615.97
2023-05-15T22:40:57.988Z,97612.81
2023-05-15T22:43:25.093Z,97611.84
2023-05-15T22:45:52.460Z,97608.22
2023-05-15T22:48:21.013Z,97599.47
2023-05-15T22:50:47.872Z,97604.06
2023-05-15T22:53:15.199Z,97609.81
2023-05-15T22:55:42.406Z,97611.28
2023-05-15T22:58:09.258Z,97611.78
2023-05-15T23:00:36.163Z,97609.47
2023-05-15T23:03:03.204Z,97614.47
2023-05-15T23:05:30.184Z,97616.81
2023-05-15T23:08:34.849Z,97613.16
2023-05-15T23:11:01.808Z,97622.91
2023-05-15T23:13:28.758Z,97620.75
2023-05-15T23:15:55.636Z,97611.91
2023-05-15T23:18:22.489Z,97606.44
2023-05-15T23:20:49.411Z,97592.72
2023-05-15T23:23:16.310Z,97588.62
2023-05-15T23:25:43.341Z,97584.63
2023-05-15T23:28:16.292Z,97583.16
2023-05-15T23:30:43.165Z,97587.91
2023-05-15T23:33:10.281Z,97583.16
2023-05-15T23:35:37.188Z,97582.03
2023-05-15T23:38:14.291Z,97575.44
2023-05-15T23:40:40.915Z,97565.22
2023-05-15T23:43:07.823Z,97564.34
2023-05-15T23:45:35.344Z,97575.81
2023-05-15T23:48:02.180Z,97576.66
2023-05-15T23:50:29.203Z,97579.88
2023-05-15T23:52:56.199Z,97578.59
2023-05-15T23:55:23.068Z,97584.66
2023-05-15T23:57:49.997Z,97585.44
